createdAt,value
2023-04-09T00:02:30.991Z,99673.47
2023-04-09T00:05:33.464Z,99672.50
2023-04-09T00:08:35.977Z,99681.78
2023-04-09T00:11:38.383Z,99677.28
2023-04-09T00:14:40.576Z,99679.34
2023-04-09T00:17:43.000Z,99669.34
2023-04-09T00:20:45.653Z,99671.56
2023-04-09T00:23:48.249Z,99673.53
2023-04-09T00:26:50.416Z,99673.47
2023-04-09T00:29:56.518Z,99675.44
2023-04-09T00:32:59.224Z,99679.34
2023-04-09T00:36:01.444Z,99675.38
2023-04-09T00:39:03.958Z,99675.25
2023-04-09T00:42:06.191Z,99678.59
2023-04-09T00:45:08.693Z,99673.63
2023-04-09T00:48:11.774Z,99674.53
2023-04-09T00:51:13.988Z,99671.78
2023-04-09T00:54:16.612Z,99666.44
2023-04-09T00:57:19.159Z,99670.47
2023-04-09T01:00:21.611Z,99667.59
2023-04-09T01:03:23.973Z,99672.72
2023-04-09T01:06:43.052Z,99664.69
2023-04-09T01:09:52.345Z,99660.34
2023-04-09T01:13:07.535Z,99662.88
2023-04-09T01:16:10.822Z,99664.31
2023-04-09T01:19:29.140Z,99657.63
2023-04-09T01:22:46.519Z,99661.72
2023-04-09T01:25:58.133Z,99661.72
2023-04-09T01:29:03.480Z,99661.28
2023-04-09T01:32:07.197Z,99655.94
2023-04-09T01:35:09.995Z,99660.97
2023-04-09T01:38:13.883Z,99664.88
2023-04-09T01:41:18.251Z,99668.38
2023-04-09T01:44:20.894Z,99670.34
2023-04-09T01:47:23.435Z,99669.53
2023-04-09T01:50:25.922Z,99671.59
2023-04-09T01:53:28.887Z,99667.91
2023-04-09T01:56:44.263Z,99654.28
2023-04-09T01:59:47.015Z,99670.03
2023-04-09T02:02:55.655Z,99676.22
2023-04-09T02:06:04.233Z,99679.50
2023-04-09T02:09:08.711Z,99670.66
2023-04-09T02:12:12.597Z,99673.22
2023-04-09T02:15:15.150Z,99672.28
2023-04-09T02:18:21.420Z,99670.31
2023-04-09T02:21:23.950Z,99668.13
2023-04-09T02:24:26.174Z,99663.78
2023-04-09T02:27:28.337Z,99662.19
2023-04-09T02:30:30.451Z,99665.78
2023-04-09T02:33:32.942Z,99663.41
2023-04-09T02:36:35.078Z,99665.41
2023-04-09T02:39:37.778Z,99657.16
2023-04-09T02:42:39.798Z,99657.94
2023-04-09T02:45:42.216Z,99658.69
2023-04-09T02:48:44.360Z,99662.50
2023-04-09T02:51:46.652Z,99672.03
2023-04-09T02:54:48.752Z,99666.09
2023-04-09T02:57:50.914Z,99664.09
2023-04-09T03:00:53.128Z,99662.50
2023-04-09T03:03:55.693Z,99669.44
2023-04-09T03:06:57.937Z,99670.88
2023-04-09T03:10:00.182Z,99666.84
2023-04-09T03:13:02.819Z,99673.03
2023-04-09T03:16:05.185Z,99676.63
2023-04-09T03:19:07.574Z,99673.47
2023-04-09T03:22:11.521Z,99671.50
2023-04-09T03:25:13.628Z,99669.66
2023-04-09T03:28:16.059Z,99662.19
2023-04-09T03:31:24.912Z,99670.88
2023-04-09T03:34:27.503Z,99668.53
2023-04-09T03:37:32.419Z,99664.88
2023-04-09T03:40:36.625Z,99661.59
2023-04-09T03:43:40.208Z,99670.81
2023-04-09T03:46:44.011Z,99661.38
2023-04-09T03:49:49.628Z,99659.06
2023-04-09T03:52:59.757Z,99662.50
2023-04-09T03:56:03.048Z,99662.25
2023-04-09T03:59:06.757Z,99668.97
2023-04-09T04:02:18.056Z,99663.72
2023-04-09T04:05:26.601Z,99667.38
2023-04-09T04:08:31.378Z,99668.34
2023-04-09T04:11:34.170Z,99670.47
2023-04-09T04:14:36.352Z,99674.59
2023-04-09T04:17:46.887Z,99673.63
2023-04-09T04:21:18.520Z,99673.47
2023-04-09T04:24:29.162Z,99674.66
2023-04-09T04:27:31.621Z,99675.47
2023-04-09T04:30:34.207Z,99675.34
2023-04-09T04:33:41.389Z,99682.16
2023-04-09T04:36:47.741Z,99682.69
2023-04-09T04:39:50.405Z,99687.19
2023-04-09T04:42:52.924Z,99684.13
2023-04-09T04:45:55.522Z,99683.72
2023-04-09T04:49:00.445Z,99690.75
2023-04-09T04:52:03.225Z,99687.41
2023-04-09T04:55:06.680Z,99689.06
2023-04-09T04:58:08.789Z,99690.59
2023-04-09T05:01:19.161Z,99692.13
2023-04-09T05:04:22.408Z,99688.31
2023-04-09T05:07:24.521Z,99698.22
2023-04-09T05:10:29.848Z,99700.38
2023-04-09T05:13:33.295Z,99700.22
2023-04-09T05:16:38.664Z,99703.41
2023-04-09T05:19:42.288Z,99695.94
2023-04-09T05:22:45.843Z,99700.47
2023-04-09T05:25:49.452Z,99705.19
2023-04-09T05:29:01.673Z,99708.41
2023-04-09T05:32:04.166Z,99715.09
2023-04-09T05:35:10.724Z,99712.47
2023-04-09T05:38:16.513Z,99716.19
2023-04-09T05:41:21.006Z,99720.75
2023-04-09T05:44:37.092Z,99727.75
2023-04-09T05:47:44.364Z,99726.63
2023-04-09T05:50:55.561Z,99724.97
2023-04-09T05:54:01.239Z,99727.16
2023-04-09T05:57:07.784Z,99735.38
2023-04-09T06:00:13.517Z,99740.66
2023-04-09T06:03:23.767Z,99724.22
2023-04-09T06:06:25.902Z,99733.06
2023-04-09T06:09:28.464Z,99738.81
2023-04-09T06:12:30.552Z,99738.78
2023-04-09T06:15:32.746Z,99736.25
2023-04-09T06:18:35.251Z,99743.13
2023-04-09T06:21:37.500Z,99738.97
2023-04-09T06:24:39.615Z,99742.69
2023-04-09T06:27:41.674Z,99744.38
2023-04-09T06:30:43.726Z,99741.91
2023-04-09T06:33:45.841Z,99749.75
2023-04-09T06:36:47.894Z,99747.75
2023-04-09T06:40:00.678Z,99762.16
2023-04-09T06:43:03.666Z,99750.94
2023-04-09T06:46:17.257Z,99759.84
2023-04-09T06:49:19.383Z,99756.66
2023-04-09T06:52:21.450Z,99764.66
2023-04-09T06:55:23.650Z,99758.00
2023-04-09T06:58:25.823Z,99767.22
2023-04-09T07:01:28.080Z,99767.09
2023-04-09T07:04:30.287Z,99765.72
2023-04-09T07:07:32.430Z,99766.56
2023-04-09T07:10:34.985Z,99770.91
2023-04-09T07:13:37.095Z,99765.44
2023-04-09T07:16:39.228Z,99775.66
2023-04-09T07:19:41.383Z,99778.00
2023-04-09T07:22:43.543Z,99775.13
2023-04-09T07:25:45.584Z,99775.97
2023-04-09T07:28:47.807Z,99781.00
2023-04-09T07:31:49.979Z,99778.34
2023-04-09T07:34:52.882Z,99779.69
2023-04-09T07:37:55.042Z,99780.84
2023-04-09T07:40:57.144Z,99778.66
2023-04-09T07:43:59.327Z,99775.66
2023-04-09T07:47:01.839Z,99777.16
2023-04-09T07:50:04.313Z,99782.34
2023-04-09T07:53:06.368Z,99796.09
2023-04-09T07:56:08.519Z,99793.75
2023-04-09T07:59:11.039Z,99793.75
2023-04-09T08:02:15.315Z,99791.56
2023-04-09T08:05:17.701Z,99794.69
2023-04-09T08:08:20.099Z,99781.91
2023-04-09T08:11:25.312Z,99784.59
2023-04-09T08:14:27.339Z,99791.00
2023-04-09T08:17:29.712Z,99790.91
2023-04-09T08:20:33.076Z,99797.09
2023-04-09T08:23:35.141Z,99790.84
2023-04-09T08:26:41.058Z,99797.13
2023-04-09T08:29:43.136Z,99801.50
2023-04-09T08:32:45.646Z,99801.75
2023-04-09T08:35:47.784Z,99805.78
2023-04-09T08:38:50.040Z,99804.94
2023-04-09T08:41:52.386Z,99805.38
2023-04-09T08:44:54.431Z,99813.84
2023-04-09T08:47:59.792Z,99812.13
2023-04-09T08:51:02.014Z,99810.84
2023-04-09T08:54:05.018Z,99820.84
2023-04-09T08:57:07.614Z,99819.09
2023-04-09T09:00:14.223Z,99823.19
2023-04-09T09:03:16.794Z,99823.47
2023-04-09T09:06:22.599Z,99821.44
2023-04-09T09:09:26.793Z,99823.06
2023-04-09T09:12:39.130Z,99825.03
2023-04-09T09:15:41.323Z,99830.16
2023-04-09T09:18:44.421Z,99830.81
2023-04-09T09:21:55.213Z,99831.59
2023-04-09T09:24:57.511Z,99829.81
2023-04-09T09:28:07.172Z,99828.38
2023-04-09T09:31:09.733Z,99831.25
2023-04-09T09:34:11.930Z,99827.34
2023-04-09T09:37:27.368Z,99830.03
2023-04-09T09:40:30.094Z,99835.06
2023-04-09T09:43:44.295Z,99830.53
2023-04-09T09:46:46.871Z,99831.72
2023-04-09T09:49:50.665Z,99825.72
2023-04-09T09:52:59.579Z,99823.09
2023-04-09T09:56:01.739Z,99818.09
2023-04-09T09:59:07.336Z,99817.41
2023-04-09T10:02:16.870Z,99818.75
2023-04-09T10:05:22.649Z,99818.81
2023-04-09T10:08:25.377Z,99816.56
2023-04-09T10:11:28.082Z,99822.03
2023-04-09T10:14:30.218Z,99812.19
2023-04-09T10:17:32.699Z,99818.84
2023-04-09T10:20:49.648Z,99816.13
2023-04-09T10:23:52.021Z,99820.53
2023-04-09T10:26:54.923Z,99819.41
2023-04-09T10:29:57.016Z,99817.94
2023-04-09T10:33:13.540Z,99820.41
2023-04-09T10:36:19.232Z,99812.72
2023-04-09T10:39:21.912Z,99817.91
2023-04-09T10:42:26.419Z,99817.13
2023-04-09T10:45:39.537Z,99820.91
2023-04-09T10:48:41.694Z,99821.88
2023-04-09T10:52:03.019Z,99824.25
2023-04-09T10:55:07.279Z,99821.28
2023-04-09T10:58:13.820Z,99819.72
2023-04-09T11:01:22.497Z,99801.56
2023-04-09T11:04:29.698Z,99808.47
2023-04-09T11:07:33.263Z,99807.50
2023-04-09T11:10:35.707Z,99806.56
2023-04-09T11:13:38.040Z,99799.59
2023-04-09T11:16:40.611Z,99799.84
2023-04-09T11:19:42.776Z,99794.63
2023-04-09T11:22:45.700Z,99799.06
2023-04-09T11:25:51.377Z,99798.97
2023-04-09T11:28:56.620Z,99793.28
2023-04-09T11:32:00.212Z,99794.09
2023-04-09T11:35:02.818Z,99795.69
2023-04-09T11:38:09.103Z,99789.81
2023-04-09T11:41:13.537Z,99793.44
2023-04-09T11:44:16.077Z,99795.72
2023-04-09T11:47:21.149Z,99791.78
2023-04-09T11:50:23.489Z,99787.03
2023-04-09T11:53:30.363Z,99792.00
2023-04-09T11:56:32.693Z,99798.44
2023-04-09T11:59:38.104Z,99796.25
2023-04-09T12:02:50.119Z,99789.63
2023-04-09T12:05:53.075Z,99794.81
2023-04-09T12:08:59.606Z,99781.72
2023-04-09T12:12:02.244Z,99785.72
2023-04-09T12:15:07.920Z,99786.47
2023-04-09T12:18:11.501Z,99785.25
2023-04-09T12:21:13.905Z,99785.63
2023-04-09T12:24:17.252Z,99786.06
2023-04-09T12:27:19.628Z,99779.03
2023-04-09T12:30:22.084Z,99772.53
2023-04-09T12:33:24.199Z,99764.56
2023-04-09T12:36:26.722Z,99770.09
2023-04-09T12:39:28.866Z,99760.91
2023-04-09T12:42:31.071Z,99763.03
2023-04-09T12:45:33.220Z,99766.09
2023-04-09T12:48:35.706Z,99764.00
2023-04-09T12:51:38.228Z,99767.97
2023-04-09T12:54:40.624Z,99761.47
2023-04-09T12:57:45.366Z,99765.63
2023-04-09T13:00:47.867Z,99762.41
2023-04-09T13:03:50.222Z,99756.91
2023-04-09T13:06:52.661Z,99759.84
2023-04-09T13:09:55.739Z,99755.56
2023-04-09T13:12:57.873Z,99754.78
2023-04-09T13:16:00.056Z,99750.66
2023-04-09T13:19:02.231Z,99753.50
2023-04-09T13:22:07.888Z,99751.34
2023-04-09T13:25:10.058Z,99748.25
2023-04-09T13:28:12.361Z,99752.94
2023-04-09T13:31:14.575Z,99758.78
2023-04-09T13:34:16.695Z,99752.19
2023-04-09T13:37:19.213Z,99760.53
2023-04-09T13:40:21.390Z,99752.66
2023-04-09T13:43:28.086Z,99746.66
2023-04-09T13:46:30.238Z,99749.22
2023-04-09T13:49:32.402Z,99746.56
2023-04-09T13:52:34.572Z,99745.03
2023-04-09T13:55:36.732Z,99749.03
2023-04-09T13:58:39.118Z,99748.25
2023-04-09T14:01:41.403Z,99741.19
2023-04-09T14:04:43.609Z,99742.50
2023-04-09T14:07:45.887Z,99738.44
2023-04-09T14:10:48.458Z,99745.16
2023-04-09T14:13:50.887Z,99741.28
2023-04-09T14:16:53.470Z,99737.16
2023-04-09T14:19:55.872Z,99727.00
2023-04-09T14:22:57.991Z,99732.38
2023-04-09T14:26:00.143Z,99729.25
2023-04-09T14:29:02.698Z,99723.84
2023-04-09T14:32:05.132Z,99717.34
2023-04-09T14:35:07.608Z,99725.47
2023-04-09T14:38:10.120Z,99718.47
2023-04-09T14:41:12.333Z,99727.41
2023-04-09T14:44:14.584Z,99726.94
2023-04-09T14:47:16.699Z,99725.38
2023-04-09T14:50:19.018Z,99728.38
2023-04-09T14:53:21.271Z,99729.28
2023-04-09T14:56:23.895Z,99733.91
2023-04-09T14:59:26.381Z,99732.41
2023-04-09T15:02:28.971Z,99735.88
2023-04-09T15:05:31.274Z,99736.38
2023-04-09T15:08:35.320Z,99736.25
2023-04-09T15:11:37.350Z,99731.69
2023-04-09T15:14:39.632Z,99730.59
2023-04-09T15:17:41.849Z,99734.06
2023-04-09T15:20:44.034Z,99730.72
2023-04-09T15:23:46.682Z,99730.25
2023-04-09T15:26:49.852Z,99733.50
2023-04-09T15:29:52.052Z,99731.84
2023-04-09T15:32:54.339Z,99734.81
2023-04-09T15:35:56.718Z,99725.63
2023-04-09T15:38:58.812Z,99736.78
2023-04-09T15:42:01.913Z,99730.72
2023-04-09T15:45:04.161Z,99732.69
2023-04-09T15:48:06.375Z,99731.47
2023-04-09T15:51:09.046Z,99735.16
2023-04-09T15:54:11.337Z,99728.44
2023-04-09T15:57:14.446Z,99725.34
2023-04-09T16:00:16.605Z,99733.69
2023-04-09T16:03:19.118Z,99724.97
2023-04-09T16:06:21.305Z,99722.53
2023-04-09T16:09:23.807Z,99723.19
2023-04-09T16:12:25.966Z,99722.53
2023-04-09T16:15:28.066Z,99722.53
2023-04-09T16:18:30.351Z,99721.06
2023-04-09T16:21:32.556Z,99720.59
2023-04-09T16:24:34.736Z,99724.72
2023-04-09T16:27:36.842Z,99719.88
2023-04-09T16:30:38.943Z,99720.09
2023-04-09T16:33:41.299Z,99722.31
2023-04-09T16:36:44.673Z,99727.63
2023-04-09T16:39:50.813Z,99723.66
2023-04-09T16:42:54.095Z,99729.16
2023-04-09T16:45:57.236Z,99721.63
2023-04-09T16:48:59.467Z,99726.31
2023-04-09T16:52:02.022Z,99728.19
2023-04-09T16:55:04.304Z,99728.56
2023-04-09T16:58:06.354Z,99730.97
2023-04-09T17:01:08.501Z,99734.88
2023-04-09T17:04:10.778Z,99734.34
2023-04-09T17:07:12.989Z,99734.34
2023-04-09T17:10:15.415Z,99737.78
2023-04-09T17:13:17.915Z,99738.88
2023-04-09T17:16:20.092Z,99726.53
2023-04-09T17:19:22.268Z,99725.59
2023-04-09T17:22:24.601Z,99730.13
2023-04-09T17:25:27.295Z,99730.88
2023-04-09T17:28:29.582Z,99735.78
2023-04-09T17:31:31.676Z,99734.66
2023-04-09T17:34:33.856Z,99735.50
2023-04-09T17:37:36.216Z,99733.56
2023-04-09T17:40:39.072Z,99740.50
2023-04-09T17:43:41.404Z,99735.94
2023-04-09T17:46:44.024Z,99735.47
2023-04-09T17:49:46.285Z,99741.41
2023-04-09T17:52:48.614Z,99744.94
2023-04-09T17:55:51.962Z,99749.66
2023-04-09T17:58:54.198Z,99750.22
2023-04-09T18:01:57.109Z,99758.63
2023-04-09T18:05:00.739Z,99758.34
2023-04-09T18:08:03.003Z,99767.44
2023-04-09T18:11:11.860Z,99769.81
2023-04-09T18:14:16.013Z,99763.78
2023-04-09T18:17:21.162Z,99766.00
2023-04-09T18:20:24.099Z,99775.75
2023-04-09T18:23:27.901Z,99775.91
2023-04-09T18:26:31.196Z,99775.63
2023-04-09T18:29:34.340Z,99780.53
2023-04-09T18:32:51.860Z,99782.38
2023-04-09T18:35:54.008Z,99783.75
2023-04-09T18:38:58.475Z,99792.53
2023-04-09T18:42:10.246Z,99789.53
2023-04-09T18:45:13.922Z,99785.72
2023-04-09T18:48:18.110Z,99791.78
2023-04-09T18:51:24.283Z,99795.31
2023-04-09T18:54:30.263Z,99787.66
2023-04-09T18:57:38.927Z,99781.88
2023-04-09T19:00:42.758Z,99794.03
2023-04-09T19:03:46.094Z,99792.72
2023-04-09T19:06:49.305Z,99787.56
2023-04-09T19:09:52.770Z,99793.47
2023-04-09T19:12:55.853Z,99792.66
2023-04-09T19:15:58.471Z,99796.03
2023-04-09T19:19:00.737Z,99790.84
2023-04-09T19:22:04.073Z,99786.34
2023-04-09T19:25:08.331Z,99794.56
2023-04-09T19:28:11.599Z,99794.91
2023-04-09T19:31:15.733Z,99796.09
2023-04-09T19:34:21.384Z,99792.09
2023-04-09T19:37:34.009Z,99794.44
2023-04-09T19:40:36.729Z,99789.56
2023-04-09T19:43:39.519Z,99790.72
2023-04-09T19:46:41.723Z,99792.25
2023-04-09T19:49:43.963Z,99786.38
2023-04-09T19:52:46.232Z,99800.63
2023-04-09T19:55:48.335Z,99795.94
2023-04-09T19:58:50.449Z,99797.09
2023-04-09T20:01:52.684Z,99792.75
2023-04-09T20:04:54.837Z,99792.41
2023-04-09T20:07:56.967Z,99796.09
2023-04-09T20:10:59.112Z,99796.25
2023-04-09T20:14:01.155Z,99793.72
2023-04-09T20:17:03.349Z,99799.75
2023-04-09T20:20:06.097Z,99795.91
2023-04-09T20:23:08.253Z,99794.06
2023-04-09T20:26:11.218Z,99799.09
2023-04-09T20:29:13.721Z,99799.41
2023-04-09T20:32:16.201Z,99796.25
2023-04-09T20:35:18.660Z,99797.91
2023-04-09T20:38:22.377Z,99798.22
2023-04-09T20:41:24.562Z,99791.72
2023-04-09T20:44:27.675Z,99796.72
2023-04-09T20:47:29.799Z,99794.53
2023-04-09T20:50:32.164Z,99794.34
2023-04-09T20:53:34.613Z,99794.84
2023-04-09T20:56:36.773Z,99794.34
2023-04-09T20:59:39.013Z,99789.31
2023-04-09T21:02:41.314Z,99790.16
2023-04-09T21:05:43.596Z,99794.00
2023-04-09T21:08:45.999Z,99790.28
2023-04-09T21:11:48.142Z,99793.63
2023-04-09T21:14:50.784Z,99799.25
2023-04-09T21:17:53.274Z,99796.47
2023-04-09T21:20:55.824Z,99805.16
2023-04-09T21:23:58.287Z,99796.53
2023-04-09T21:27:01.643Z,99800.69
2023-04-09T21:30:04.007Z,99792.59
2023-04-09T21:33:06.953Z,99794.97
2023-04-09T21:36:09.492Z,99801.56
2023-04-09T21:39:12.045Z,99800.44
2023-04-09T21:42:14.218Z,99797.66
2023-04-09T21:45:16.643Z,99798.38
2023-04-09T21:48:19.076Z,99795.69
2023-04-09T21:51:21.218Z,99803.72
2023-04-09T21:54:23.377Z,99803.72
2023-04-09T21:57:25.520Z,99800.69
2023-04-09T22:00:29.174Z,99801.69
2023-04-09T22:03:31.504Z,99800.22
2023-04-09T22:06:33.967Z,99797.22
2023-04-09T22:09:36.106Z,99795.53
2023-04-09T22:12:38.215Z,99797.38
2023-04-09T22:15:41.835Z,99800.28
2023-04-09T22:18:43.990Z,99806.97
2023-04-09T22:21:50.585Z,99797.66
2023-04-09T22:24:52.709Z,99804.63
2023-04-09T22:27:54.757Z,99802.31
2023-04-09T22:30:58.115Z,99801.41
2023-04-09T22:34:09.958Z,99805.34
2023-04-09T22:37:17.429Z,99798.31
2023-04-09T22:40:19.886Z,99798.56
2023-04-09T22:43:22.634Z,99794.28
2023-04-09T22:46:25.312Z,99801.00
2023-04-09T22:49:27.467Z,99793.44
2023-04-09T22:52:29.514Z,99801.19
2023-04-09T22:55:31.985Z,99806.28
2023-04-09T22:58:34.129Z,99810.84
2023-04-09T23:01:36.860Z,99812.34
2023-04-09T23:04:39.034Z,99803.81
2023-04-09T23:07:42.766Z,99803.44
2023-04-09T23:10:44.907Z,99803.72
2023-04-09T23:13:47.039Z,99803.72
2023-04-09T23:16:49.275Z,99797.03
2023-04-09T23:19:52.466Z,99798.09
2023-04-09T23:22:54.507Z,99801.09
2023-04-09T23:25:56.669Z,99804.13
2023-04-09T23:28:58.790Z,99801.63
2023-04-09T23:32:01.143Z,99794.28
2023-04-09T23:35:03.556Z,99796.72
2023-04-09T23:38:05.757Z,99788.03
2023-04-09T23:41:08.192Z,99785.50
2023-04-09T23:44:10.400Z,99790.59
2023-04-09T23:47:13.899Z,99790.81
2023-04-09T23:50:16.524Z,99785.16
2023-04-09T23:53:19.021Z,99791.34
2023-04-09T23:56:21.150Z,99783.00
2023-04-09T23:59:23.261Z,99782.13
